createdAt,value
2018-08-19T00:00:09.446Z,60.80
2018-08-19T00:02:39.426Z,62.70
2018-08-19T00:05:17.100Z,62.20
2018-08-19T00:07:48.374Z,61.60
2018-08-19T00:10:22.816Z,61.50
2018-08-19T00:12:52.711Z,62.00
2018-08-19T00:15:22.906Z,62.00
2018-08-19T00:17:53.130Z,61.80
2018-08-19T00:20:27.055Z,61.70
2018-08-19T00:22:57.919Z,61.40
2018-08-19T00:25:35.196Z,61.80
2018-08-19T00:28:07.505Z,61.40
2018-08-19T00:30:37.429Z,60.90
2018-08-19T00:33:07.507Z,60.20
2018-08-19T00:35:37.801Z,59.90
2018-08-19T00:38:11.203Z,59.60
2018-08-19T00:40:41.781Z,60.50
2018-08-19T00:43:11.906Z,59.50
2018-08-19T00:45:43.358Z,59.50
2018-08-19T00:48:13.694Z,59.80
2018-08-19T00:50:43.494Z,60.00
2018-08-19T00:53:14.499Z,60.20
2018-08-19T00:55:53.559Z,60.50
2018-08-19T00:58:23.516Z,60.50
2018-08-19T01:00:53.656Z,60.60
2018-08-19T01:03:23.588Z,60.40
2018-08-19T01:05:56.556Z,61.70
2018-08-19T01:08:27.225Z,60.60
2018-08-19T01:10:59.866Z,61.40
2018-08-19T01:13:30.742Z,61.60
2018-08-19T01:16:02.995Z,61.90
2018-08-19T01:18:33.146Z,61.60
2018-08-19T01:21:12.013Z,61.80
2018-08-19T01:23:42.114Z,61.60
2018-08-19T01:26:13.470Z,61.30
2018-08-19T01:28:44.607Z,61.10
2018-08-19T01:31:14.519Z,61.00
2018-08-19T01:33:44.553Z,61.00
2018-08-19T01:36:15.122Z,61.30
2018-08-19T01:38:46.226Z,61.20
2018-08-19T01:41:17.039Z,61.40
2018-08-19T01:43:59.089Z,61.10
2018-08-19T01:46:30.412Z,60.90
2018-08-19T01:49:00.284Z,61.10
2018-08-19T01:51:30.564Z,61.50
2018-08-19T01:54:05.847Z,61.70
2018-08-19T01:56:36.481Z,61.60
2018-08-19T01:59:07.104Z,61.90
2018-08-19T02:01:47.398Z,62.00
2018-08-19T02:04:17.975Z,62.50
2018-08-19T02:06:47.691Z,62.70
2018-08-19T02:09:18.975Z,62.80
2018-08-19T02:11:53.400Z,62.60
2018-08-19T02:14:24.053Z,62.90
2018-08-19T02:16:54.961Z,63.20
2018-08-19T02:19:25.586Z,63.20
2018-08-19T02:21:56.055Z,63.40
2018-08-19T02:24:26.131Z,64.10
2018-08-19T02:26:56.026Z,64.20
2018-08-19T02:29:35.665Z,64.10
2018-08-19T02:32:09.922Z,65.20
2018-08-19T02:34:43.857Z,65.00
2018-08-19T02:37:15.728Z,64.60
2018-08-19T02:39:47.521Z,65.00
2018-08-19T02:42:23.917Z,65.10
2018-08-19T02:44:56.842Z,65.70
2018-08-19T02:47:26.838Z,65.90
2018-08-19T02:49:57.106Z,65.10
2018-08-19T02:52:28.624Z,64.80
2018-08-19T02:55:01.622Z,65.30
2018-08-19T02:57:33.366Z,65.00
2018-08-19T03:00:03.941Z,66.40
2018-08-19T03:02:36.228Z,65.10
2018-08-19T03:05:10.357Z,65.70
2018-08-19T03:07:40.168Z,64.70
2018-08-19T03:10:12.432Z,65.00
2018-08-19T03:12:42.869Z,64.90
2018-08-19T03:15:15.557Z,64.90
2018-08-19T03:17:49.046Z,64.80
2018-08-19T03:20:19.219Z,64.50
2018-08-19T03:22:48.894Z,65.60
2018-08-19T03:25:18.749Z,65.10
2018-08-19T03:27:48.700Z,64.00
2018-08-19T03:30:18.601Z,66.50
2018-08-19T03:32:53.512Z,64.60
2018-08-19T03:35:23.791Z,64.60
2018-08-19T03:37:55.020Z,64.10
2018-08-19T03:40:27.224Z,64.90
2018-08-19T03:42:57.925Z,64.00
2018-08-19T03:45:29.598Z,64.00
2018-08-19T03:48:01.611Z,64.50
2018-08-19T03:50:32.204Z,65.40
2018-08-19T03:53:03.277Z,65.00
2018-08-19T03:55:33.870Z,64.80
2018-08-19T03:58:11.882Z,65.50
2018-08-19T04:00:46.061Z,65.70
2018-08-19T04:03:21.485Z,65.40
2018-08-19T04:05:55.351Z,65.30
2018-08-19T04:08:33.254Z,66.00
2018-08-19T04:11:05.608Z,67.00
2018-08-19T04:13:38.931Z,66.10
2018-08-19T04:16:10.208Z,65.70
2018-08-19T04:18:43.423Z,65.10
2018-08-19T04:21:17.695Z,65.00
2018-08-19T04:23:49.560Z,64.30
2018-08-19T04:26:19.357Z,63.90
2018-08-19T04:28:49.867Z,63.70
2018-08-19T04:31:24.884Z,63.60
2018-08-19T04:33:55.605Z,63.60
2018-08-19T04:36:26.102Z,63.90
2018-08-19T04:38:56.371Z,63.60
2018-08-19T04:41:27.224Z,63.80
2018-08-19T04:43:57.442Z,63.70
2018-08-19T04:46:27.697Z,63.40
2018-08-19T04:48:57.693Z,63.30
2018-08-19T04:51:28.504Z,63.20
2018-08-19T04:53:58.482Z,63.10
2018-08-19T04:56:28.561Z,63.00
2018-08-19T04:58:58.780Z,63.30
2018-08-19T05:01:29.022Z,63.00
2018-08-19T05:03:58.957Z,64.30
2018-08-19T05:06:29.202Z,64.20
2018-08-19T05:08:59.247Z,63.20
2018-08-19T05:11:29.253Z,62.70
2018-08-19T05:14:00.392Z,62.80
2018-08-19T05:16:30.523Z,62.60
2018-08-19T05:19:05.839Z,62.60
2018-08-19T05:21:36.011Z,62.40
2018-08-19T05:24:06.435Z,62.20
2018-08-19T05:26:37.049Z,62.20
2018-08-19T05:29:12.255Z,62.50
2018-08-19T05:31:48.655Z,62.50
2018-08-19T05:34:36.868Z,63.10
2018-08-19T05:37:06.687Z,64.70
2018-08-19T05:39:36.765Z,63.20
2018-08-19T05:42:13.636Z,62.80
2018-08-19T05:44:45.755Z,62.00
2018-08-19T05:47:18.096Z,61.70
2018-08-19T05:49:49.088Z,61.40
2018-08-19T05:52:23.187Z,61.10
2018-08-19T05:54:57.904Z,61.10
2018-08-19T05:57:29.139Z,60.80
2018-08-19T05:59:59.497Z,60.80
2018-08-19T06:02:34.920Z,60.50
2018-08-19T06:05:05.048Z,60.20
2018-08-19T06:07:34.862Z,59.70
2018-08-19T06:10:04.999Z,59.70
2018-08-19T06:12:34.977Z,59.80
2018-08-19T06:15:04.809Z,59.30
2018-08-19T06:17:34.508Z,59.20
2018-08-19T06:20:05.014Z,59.20
2018-08-19T06:22:41.438Z,58.90
2018-08-19T06:25:12.251Z,58.90
2018-08-19T06:27:47.935Z,59.10
2018-08-19T06:30:18.514Z,58.60
2018-08-19T06:32:48.505Z,58.70
2018-08-19T06:35:18.311Z,59.20
2018-08-19T06:37:47.979Z,57.60
2018-08-19T06:40:19.002Z,58.30
2018-08-19T06:42:48.897Z,57.40
2018-08-19T06:45:18.912Z,57.20
2018-08-19T06:47:48.829Z,57.80
2018-08-19T06:50:24.917Z,57.00
2018-08-19T06:52:55.670Z,57.10
2018-08-19T06:55:25.506Z,56.70
2018-08-19T06:57:57.178Z,56.10
2018-08-19T07:00:28.545Z,55.90
2018-08-19T07:03:02.389Z,56.00
2018-08-19T07:05:32.893Z,55.60
2018-08-19T07:08:03.499Z,55.40
2018-08-19T07:10:39.278Z,55.80
2018-08-19T07:13:11.547Z,55.10
2018-08-19T07:15:42.333Z,54.60
2018-08-19T07:18:14.499Z,54.40
2018-08-19T07:20:45.332Z,53.80
2018-08-19T07:23:16.278Z,54.10
2018-08-19T07:25:46.634Z,55.20
2018-08-19T07:28:21.850Z,53.20
2018-08-19T07:30:51.602Z,52.20
2018-08-19T07:33:21.463Z,52.20
2018-08-19T07:35:51.371Z,52.50
2018-08-19T07:38:22.077Z,51.80
2018-08-19T07:40:54.821Z,52.00
2018-08-19T07:46:10.966Z,49.70
2018-08-19T07:48:51.450Z,48.30
2018-08-19T07:51:26.207Z,47.80
2018-08-19T07:54:06.422Z,47.10
2018-08-19T07:56:48.391Z,46.40
2018-08-19T07:59:27.861Z,45.90
2018-08-19T08:02:09.745Z,45.70
2018-08-19T08:07:33.101Z,43.50
2018-08-19T08:10:07.934Z,41.80
2018-08-19T08:12:39.678Z,40.80
2018-08-19T08:15:12.388Z,39.70
2018-08-19T08:17:43.693Z,38.60
2018-08-19T08:20:23.047Z,36.70
2018-08-19T08:23:02.361Z,35.50
2018-08-19T08:25:33.119Z,34.20
2018-08-19T08:28:05.626Z,33.10
2018-08-19T08:30:37.459Z,33.20
2018-08-19T08:46:30.613Z,32.10
2018-08-19T08:49:23.079Z,32.30
2018-08-19T08:52:10.781Z,31.40
2018-08-19T08:54:58.215Z,30.70
2018-08-19T08:57:47.959Z,30.30
2018-08-19T09:00:28.758Z,30.00
2018-08-19T09:03:03.926Z,30.60
2018-08-19T09:05:43.164Z,30.40
2018-08-19T09:08:33.613Z,29.50
2018-08-19T09:11:09.216Z,29.80
2018-08-19T09:13:51.589Z,29.10
2018-08-19T09:16:31.902Z,29.00
2018-08-19T09:19:01.810Z,29.10
2018-08-19T09:21:32.861Z,28.60
2018-08-19T09:24:05.500Z,29.00
2018-08-19T09:26:42.986Z,28.20
2018-08-19T09:29:15.944Z,28.50
2018-08-19T09:31:46.572Z,28.80
2018-08-19T09:34:24.025Z,28.30
2018-08-19T09:37:15.849Z,28.10
2018-08-19T09:42:46.925Z,28.60
2018-08-19T09:54:17.395Z,26.90
2018-08-19T09:56:47.443Z,26.70
2018-08-19T09:59:21.628Z,27.20
2018-08-19T10:01:53.155Z,26.70
2018-08-19T10:04:28.045Z,25.90
2018-08-19T10:07:18.220Z,26.20
2018-08-19T10:09:53.053Z,26.30
2018-08-19T10:12:23.079Z,26.80
2018-08-19T10:14:53.393Z,26.40
2018-08-19T10:20:30.019Z,25.60
2018-08-19T10:23:02.377Z,26.00
2018-08-19T10:25:36.210Z,25.80
2018-08-19T10:28:07.904Z,25.40
2018-08-19T10:31:01.266Z,25.60
2018-08-19T10:33:33.395Z,25.90
2018-08-19T10:36:04.808Z,25.30
2018-08-19T10:38:40.469Z,24.90
2018-08-19T10:41:12.498Z,24.40
2018-08-19T10:43:44.294Z,24.70
2018-08-19T10:46:15.626Z,24.50
2018-08-19T10:48:46.138Z,23.20
2018-08-19T10:51:16.425Z,22.80
2018-08-19T10:53:51.797Z,22.80
2018-08-19T10:56:28.207Z,23.00
2018-08-19T10:59:01.667Z,22.30
2018-08-19T11:01:32.696Z,22.80
2018-08-19T11:04:03.384Z,22.10
2018-08-19T11:06:36.801Z,22.90
2018-08-19T11:09:08.807Z,21.90
2018-08-19T11:11:40.455Z,22.20
2018-08-19T11:14:15.843Z,21.80
2018-08-19T11:16:47.704Z,21.90
2018-08-19T11:19:18.763Z,21.80
2018-08-19T11:21:51.308Z,21.80
2018-08-19T11:24:27.424Z,21.70
2018-08-19T11:27:07.350Z,21.40
2018-08-19T11:29:41.318Z,21.80
2018-08-19T11:32:17.986Z,21.70
2018-08-19T11:34:52.811Z,21.50
2018-08-19T11:37:23.460Z,21.30
2018-08-19T11:39:53.863Z,21.10
2018-08-19T11:42:26.928Z,21.30
2018-08-19T11:44:57.282Z,21.50
2018-08-19T11:47:29.266Z,21.30
2018-08-19T11:49:59.754Z,21.30
2018-08-19T11:52:32.040Z,21.00
2018-08-19T11:55:03.577Z,20.80
2018-08-19T11:57:35.417Z,21.00
2018-08-19T12:00:14.588Z,21.20
2018-08-19T12:02:48.701Z,21.50
2018-08-19T12:05:27.030Z,20.60
2018-08-19T12:08:08.519Z,21.20
2018-08-19T12:10:50.126Z,20.90
2018-08-19T12:13:28.503Z,21.20
2018-08-19T12:16:05.356Z,20.60
2018-08-19T12:21:58.032Z,20.70
2018-08-19T12:24:49.927Z,21.10
2018-08-19T12:27:32.230Z,20.80
2018-08-19T12:30:13.925Z,21.60
2018-08-19T12:32:50.672Z,21.60
2018-08-19T12:35:25.966Z,20.90
2018-08-19T12:38:05.196Z,20.90
2018-08-19T12:40:47.864Z,21.00
2018-08-19T12:43:29.431Z,20.50
2018-08-19T12:48:39.593Z,21.50
2018-08-19T12:51:09.328Z,21.30
2018-08-19T12:53:39.613Z,22.40
2018-08-19T12:56:11.489Z,22.20
2018-08-19T12:58:44.942Z,22.10
2018-08-19T13:01:17.588Z,22.70
2018-08-19T13:03:47.378Z,24.20
2018-08-19T13:06:17.025Z,24.00
2018-08-19T13:08:46.441Z,24.30
2018-08-19T13:11:16.130Z,23.10
2018-08-19T13:16:53.914Z,22.60
2018-08-19T13:19:29.975Z,23.00
2018-08-19T13:22:00.094Z,23.40
2018-08-19T13:24:38.725Z,23.60
2018-08-19T13:27:10.074Z,23.40
2018-08-19T13:29:41.712Z,24.20
2018-08-19T13:32:12.148Z,23.50
2018-08-19T13:34:43.699Z,23.90
2018-08-19T13:37:13.636Z,23.60
2018-08-19T13:39:46.702Z,23.80
2018-08-19T13:45:24.613Z,24.80
2018-08-19T13:47:59.813Z,24.70
2018-08-19T13:50:50.502Z,24.50
2018-08-19T13:53:26.692Z,24.20
2018-08-19T13:56:03.318Z,24.10
2018-08-19T13:58:37.356Z,24.90
2018-08-19T14:01:15.676Z,25.50
2018-08-19T14:03:50.232Z,25.40
2018-08-19T14:06:22.976Z,24.90
2018-08-19T14:08:53.156Z,25.10
2018-08-19T14:11:30.989Z,25.00
2018-08-19T14:14:04.271Z,25.00
2018-08-19T14:16:54.851Z,24.90
2018-08-19T14:19:27.330Z,25.70
2018-08-19T14:22:02.907Z,25.20
2018-08-19T14:24:33.024Z,25.50
2018-08-19T14:27:04.522Z,26.10
2018-08-19T14:29:35.429Z,25.60
2018-08-19T14:35:29.974Z,26.50
2018-08-19T14:38:07.249Z,25.70
2018-08-19T14:40:47.690Z,26.00
2018-08-19T14:46:35.245Z,25.80
2018-08-19T14:49:18.477Z,26.30
2018-08-19T14:54:52.364Z,26.80
2018-08-19T14:57:31.138Z,26.10
2018-08-19T15:00:10.294Z,26.10
2018-08-19T17:56:51.056Z,31.50
2018-08-19T17:59:20.319Z,31.80
2018-08-19T18:01:49.512Z,31.90
2018-08-19T18:04:19.037Z,32.90
2018-08-19T18:06:49.214Z,32.70
2018-08-19T18:09:18.828Z,32.50
2018-08-19T18:12:09.018Z,33.00
2018-08-19T18:23:31.726Z,34.00
2018-08-19T18:29:20.953Z,35.00
2018-08-19T18:31:53.247Z,35.50
2018-08-19T18:34:28.023Z,36.00
2018-08-19T18:37:07.093Z,35.20
2018-08-19T18:40:16.123Z,35.60
2018-08-19T18:43:11.512Z,35.70
2018-08-19T19:02:13.848Z,37.90
2018-08-19T19:04:46.935Z,37.70
2018-08-19T19:07:24.364Z,37.50
2018-08-19T19:10:05.511Z,37.50
2018-08-19T19:12:49.191Z,37.80
2018-08-19T19:15:30.295Z,38.30
2018-08-19T19:18:24.403Z,38.30
2018-08-19T19:23:54.510Z,38.20
2018-08-19T19:26:29.203Z,38.60
2018-08-19T19:28:58.892Z,38.70
2018-08-19T19:31:28.338Z,39.10
2018-08-19T19:34:02.905Z,39.20
2018-08-19T19:36:32.665Z,39.50
2018-08-19T19:39:02.405Z,40.20
2018-08-19T19:41:32.895Z,40.20
2018-08-19T19:44:21.771Z,40.90
2018-08-19T19:46:51.339Z,41.50
2018-08-19T19:49:20.959Z,42.10
2018-08-19T19:51:55.153Z,42.40
2018-08-19T19:54:27.257Z,43.30
2018-08-19T19:56:56.741Z,43.10
2018-08-19T19:59:28.394Z,43.10
2018-08-19T20:01:57.892Z,42.60
2018-08-19T20:04:27.054Z,43.10
2018-08-19T20:06:56.689Z,45.70
2018-08-19T20:09:25.810Z,45.40
2018-08-19T20:11:55.110Z,44.10
2018-08-19T20:14:24.754Z,44.10
2018-08-19T20:16:53.990Z,43.80
2018-08-19T20:19:28.017Z,43.70
2018-08-19T20:22:04.973Z,44.40
2018-08-19T20:24:38.840Z,44.30
2018-08-19T20:27:08.420Z,44.00
2018-08-19T20:29:37.599Z,44.40
2018-08-19T20:32:06.907Z,44.70
2018-08-19T20:34:40.016Z,44.90
2018-08-19T20:37:10.908Z,44.90
2018-08-19T20:39:40.467Z,45.60
2018-08-19T20:42:09.650Z,47.50
2018-08-19T20:44:39.188Z,47.30
2018-08-19T20:47:08.616Z,47.40
2018-08-19T20:49:37.833Z,47.90
2018-08-19T20:52:08.406Z,49.50
2018-08-19T20:54:38.059Z,48.60
2018-08-19T20:57:07.817Z,49.20
2018-08-19T20:59:38.461Z,48.30
2018-08-19T21:02:09.112Z,47.60
2018-08-19T21:04:38.584Z,47.40
2018-08-19T21:07:08.205Z,47.60
2018-08-19T21:09:37.909Z,49.20
2018-08-19T21:12:07.778Z,48.60
2018-08-19T21:14:37.218Z,50.10
2018-08-19T21:17:07.173Z,49.10
2018-08-19T21:19:36.931Z,49.50
2018-08-19T21:22:06.932Z,52.30
2018-08-19T21:24:36.638Z,54.00
2018-08-19T21:27:06.396Z,52.40
2018-08-19T21:29:36.150Z,52.70
2018-08-19T21:32:06.723Z,52.80
2018-08-19T21:34:36.215Z,53.40
2018-08-19T21:37:05.743Z,52.20
2018-08-19T21:39:35.834Z,53.50
2018-08-19T21:42:05.930Z,54.70
2018-08-19T21:44:35.471Z,52.50
2018-08-19T21:47:06.345Z,52.90
2018-08-19T21:49:36.412Z,53.30
2018-08-19T21:52:06.261Z,51.50
2018-08-19T21:54:35.751Z,51.90
2018-08-19T21:57:05.796Z,52.40
2018-08-19T21:59:35.405Z,51.80
2018-08-19T22:02:05.262Z,53.10
2018-08-19T22:04:34.948Z,51.60
2018-08-19T22:07:04.981Z,53.30
2018-08-19T22:09:36.460Z,55.60
2018-08-19T22:12:08.169Z,53.20
2018-08-19T22:14:38.318Z,55.50
2018-08-19T22:17:09.637Z,53.40
2018-08-19T22:19:40.309Z,52.90
2018-08-19T22:22:10.518Z,53.30
2018-08-19T22:24:40.358Z,56.20
2018-08-19T22:27:17.767Z,54.50
2018-08-19T22:29:48.043Z,56.10
2018-08-19T22:32:18.369Z,54.10
2018-08-19T22:34:49.470Z,54.80
2018-08-19T22:37:20.522Z,53.30
2018-08-19T22:39:51.086Z,53.10
2018-08-19T22:42:21.338Z,53.40
2018-08-19T22:44:51.581Z,53.40
2018-08-19T22:47:21.651Z,53.70
2018-08-19T22:49:52.077Z,55.80
2018-08-19T22:52:24.194Z,56.00
2018-08-19T22:54:57.631Z,56.40
2018-08-19T22:57:29.250Z,56.00
2018-08-19T23:00:00.161Z,58.60
2018-08-19T23:02:32.397Z,58.30
2018-08-19T23:05:02.660Z,57.50
2018-08-19T23:07:33.042Z,56.70
2018-08-19T23:10:05.794Z,56.70
2018-08-19T23:12:55.434Z,56.60
2018-08-19T23:15:41.997Z,56.00
2018-08-19T23:18:22.198Z,56.00
2018-08-19T23:20:53.033Z,56.40
2018-08-19T23:23:26.104Z,56.20
2018-08-19T23:25:56.351Z,58.60
2018-08-19T23:28:27.333Z,56.90
2018-08-19T23:30:58.247Z,56.50
2018-08-19T23:33:29.573Z,56.80
2018-08-19T23:35:59.857Z,56.90
2018-08-19T23:38:30.781Z,57.00
2018-08-19T23:41:00.802Z,57.30
2018-08-19T23:43:31.972Z,58.00
2018-08-19T23:46:04.192Z,58.00
2018-08-19T23:48:36.438Z,58.40
2018-08-19T23:51:09.544Z,59.00
2018-08-19T23:53:50.181Z,58.50
2018-08-19T23:56:30.602Z,59.70
2018-08-19T23:59:09.560Z,58.60
